Time;durP1;ratioP1;P1;durP2;ratioP2;P2;SDS_P1;SDS_P2;PMS_P1;PMS_P2;Temp;Humidity;BMP_temperature;BMP_pressure;BME280_temperature;BME280_humidity;BME280_pressure;Samples;Min_cycle;Max_cycle;Signal;HPM_P1;HPM_P2
2024/01/05 00:01:12;;;;;;;49.38;27.92;;;;;;;-142.57;100.00;56052.63;5059493;28;20029;-79
2024/01/05 00:03:38;;;;;;;49.03;29.50;;;;;;;-142.57;100.00;56072.81;5076319;28;20497;-82
2024/01/05 00:06:03;;;;;;;51.88;28.75;;;;;;;-142.57;100.00;56113.25;5081268;28;20109;-81
2024/01/05 00:08:29;;;;;;;62.33;33.75;;;;;;;-142.57;100.00;56093.03;5065961;28;20024;-79
2024/01/05 00:10:54;;;;;;;57.08;31.27;;;;;;;-142.57;100.00;56107.19;4985254;28;20059;-81
2024/01/05 00:13:20;;;;;;;52.05;29.00;;;;;;;-142.57;100.00;56117.28;4984983;28;20370;-81
2024/01/05 00:15:45;;;;;;;61.83;31.13;;;;;;;-142.57;100.00;56121.31;4986474;28;20633;-80
2024/01/05 00:18:11;;;;;;;53.63;31.75;;;;;;;-142.57;100.00;56050.59;4974715;28;20036;-81
2024/01/05 00:20:37;;;;;;;54.83;32.42;;;;;;;-142.57;100.00;56054.63;4974877;28;20044;-81
2024/01/05 00:23:03;;;;;;;58.22;33.40;;;;;;;-142.57;100.00;56046.56;4984270;28;20059;-81
2024/01/05 00:25:28;;;;;;;58.00;33.72;;;;;;;-142.57;100.00;56093.03;4953074;28;20919;-83
2024/01/05 00:27:54;;;;;;;58.40;34.40;;;;;;;-142.57;100.00;56066.75;4982487;28;20116;-79
2024/01/05 00:30:19;;;;;;;59.90;34.50;;;;;;;-142.57;100.00;56048.56;4982916;28;20172;-79
2024/01/05 00:32:45;;;;;;;74.15;34.53;;;;;;;-142.57;100.00;56054.63;4982744;28;20555;-80
2024/01/05 00:35:11;;;;;;;63.60;33.80;;;;;;;-142.57;100.00;56052.63;4983386;28;22080;-79
2024/01/05 00:37:36;;;;;;;69.00;36.78;;;;;;;-142.57;100.00;56038.47;4984321;28;20042;-80
2024/01/05 00:40:03;;;;;;;63.92;36.50;;;;;;;-142.57;100.00;56080.91;4983079;28;20048;-81
2024/01/05 00:42:28;;;;;;;65.57;34.03;;;;;;;-142.57;100.00;56044.53;4982772;28;20040;-79
2024/01/05 00:44:54;;;;;;;62.90;35.50;;;;;;;-142.57;100.00;56074.84;5015551;28;20077;-82
2024/01/05 00:47:19;;;;;;;59.55;36.15;;;;;;;-142.57;100.00;56052.63;5078233;28;20043;-80
2024/01/05 00:49:45;;;;;;;61.03;35.08;;;;;;;-142.57;100.00;56056.66;5076067;28;20032;-80
2024/01/05 00:52:12;;;;;;;62.40;34.65;;;;;;;-142.57;100.00;56020.28;5052597;28;20093;-81
2024/01/05 00:54:40;;;;;;;65.47;36.00;;;;;;;-142.57;100.00;56032.41;5065108;28;20037;-80
2024/01/05 00:57:06;;;;;;;60.88;35.10;;;;;;;-142.57;100.00;56030.38;5075530;28;20041;-81
2024/01/05 00:59:32;;;;;;;62.42;34.72;;;;;;;-142.57;100.00;55985.94;5004110;28;21752;-80
2024/01/05 01:01:57;;;;;;;61.22;35.80;;;;;;;-142.57;100.00;56004.13;4986362;28;20385;-81
2024/01/05 01:04:23;;;;;;;69.30;36.78;;;;;;;-142.57;100.00;55939.47;4982523;28;20714;-79
2024/01/05 01:06:49;;;;;;;73.60;38.55;;;;;;;-142.57;100.00;55955.63;4983108;28;20051;-82
2024/01/05 01:09:15;;;;;;;65.07;36.65;;;;;;;-142.57;100.00;55965.72;4983124;28;20035;-78
2024/01/05 01:11:40;;;;;;;67.82;37.65;;;;;;;-142.57;100.00;55983.91;4980166;28;22501;-80
2024/01/05 01:14:06;;;;;;;68.35;38.20;;;;;;;-142.57;100.00;56004.13;4980002;28;20062;-79
2024/01/05 01:16:32;;;;;;;68.38;38.22;;;;;;;-142.57;100.00;55979.88;4984044;28;20044;-80
2024/01/05 01:18:57;;;;;;;68.50;39.05;;;;;;;-142.57;100.00;55975.84;4979315;28;20032;-81
2024/01/05 01:21:23;;;;;;;72.15;39.22;;;;;;;-142.57;100.00;55939.47;4980651;28;20033;-78
2024/01/05 01:23:51;;;;;;;70.50;39.90;;;;;;;-142.57;100.00;55949.56;4968554;28;20112;-79
2024/01/05 01:26:16;;;;;;;75.97;40.85;;;;;;;-142.57;100.00;55911.16;4982895;28;20028;-80
2024/01/05 01:28:42;;;;;;;100.38;48.47;;;;;;;-142.57;100.00;56000.06;4982031;28;20041;-81
2024/01/05 01:31:07;;;;;;;93.10;48.05;;;;;;;-142.57;100.00;56056.66;4979515;28;20032;-79
2024/01/05 01:33:33;;;;;;;94.38;49.38;;;;;;;-142.57;100.00;56024.31;4980857;28;20489;-80
2024/01/05 01:35:58;;;;;;;101.70;50.00;;;;;;;-142.57;100.00;56070.81;4983279;28;20447;-81
2024/01/05 01:38:24;;;;;;;103.57;51.83;;;;;;;-142.57;100.00;56062.72;4983659;28;20433;-80
2024/01/05 01:40:50;;;;;;;110.40;54.83;;;;;;;-142.57;100.00;56194.06;4981743;28;20048;-81
2024/01/05 01:43:21;;;;;;;120.32;57.53;;;;;;;-142.57;100.00;56216.28;4981723;28;20040;-81
2024/01/05 01:45:47;;;;;;;119.88;59.25;;;;;;;-142.57;100.00;56319.34;4980978;28;20053;-81
2024/01/05 01:48:17;;;;;;;138.52;63.10;;;;;;;-142.57;100.00;56359.78;4981413;28;20028;-81
2024/01/05 01:50:43;;;;;;;136.40;62.55;;;;;;;-142.57;100.00;56363.81;4981357;28;20043;-82
2024/01/05 01:53:10;;;;;;;136.45;60.95;;;;;;;-142.57;100.00;56456.78;4976780;28;20036;-81
2024/01/05 01:55:36;;;;;;;157.43;64.47;;;;;;;-142.57;100.00;56485.06;5047237;28;20042;-79
2024/01/05 01:58:04;;;;;;;143.60;66.18;;;;;;;-142.57;100.00;56614.41;4992183;28;20478;-80
2024/01/05 02:00:30;;;;;;;165.77;65.15;;;;;;;-142.57;100.00;56636.66;5071099;28;20040;-80
2024/01/05 02:02:56;;;;;;;203.73;63.53;;;;;;;-142.57;100.00;56707.38;5052447;28;20035;-78
2024/01/05 02:05:22;;;;;;;170.90;66.78;;;;;;;-142.57;100.00;56731.63;4984502;28;21381;-82
2024/01/05 02:07:47;;;;;;;151.40;66.55;;;;;;;-142.57;100.00;56848.84;4983928;28;20787;-81
2024/01/05 02:10:13;;;;;;;154.18;64.65;;;;;;;-142.57;100.00;56816.50;4981042;28;20086;-82
2024/01/05 02:12:38;;;;;;;153.85;65.65;;;;;;;-142.57;100.00;56919.59;5010891;28;20088;-82
2024/01/05 02:15:05;;;;;;;163.40;65.78;;;;;;;-142.57;100.00;56792.25;5020027;28;20043;-80
2024/01/05 02:17:32;;;;;;;165.52;63.22;;;;;;;-142.57;100.00;56721.53;4980853;28;20036;-81
2024/01/05 02:19:58;;;;;;;158.57;65.15;;;;;;;-142.57;100.00;56766.00;4969326;28;20115;-80
2024/01/05 02:22:31;;;;;;;159.35;62.95;;;;;;;-142.57;100.00;56780.13;4980785;28;22072;-83
2024/01/05 02:24:57;;;;;;;175.57;64.13;;;;;;;-142.57;100.00;56796.31;5061643;28;20492;-80
2024/01/05 02:27:26;;;;;;;174.10;66.13;;;;;;;-142.57;100.00;56832.69;5072369;28;20036;-80
2024/01/05 02:29:53;;;;;;;164.40;67.82;;;;;;;-142.57;100.00;56921.63;5011786;28;20040;-80
2024/01/05 02:32:18;;;;;;;167.02;66.38;;;;;;;-142.57;100.00;56917.56;4995215;28;20039;-79
2024/01/05 02:34:44;;;;;;;183.10;68.38;;;;;;;-142.57;100.00;57099.47;4990352;28;20127;-78
2024/01/05 02:37:10;;;;;;;226.15;70.38;;;;;;;-142.57;100.00;56994.38;4979887;28;20040;-78
2024/01/05 02:39:36;;;;;;;228.50;69.72;;;;;;;-142.57;100.00;57121.72;5048111;28;20025;-81
2024/01/05 02:42:02;;;;;;;214.70;68.57;;;;;;;-142.57;100.00;57198.53;5071142;28;20044;-81
2024/01/05 02:44:27;;;;;;;189.88;68.90;;;;;;;-142.57;100.00;57265.22;5047096;28;20044;-80
2024/01/05 02:46:53;;;;;;;219.20;73.40;;;;;;;-142.57;100.00;57346.06;4978923;28;20044;-80
2024/01/05 02:49:18;;;;;;;207.32;73.53;;;;;;;-142.57;100.00;57491.63;4980804;28;20396;-79
2024/01/05 02:51:44;;;;;;;196.60;71.15;;;;;;;-142.57;100.00;57722.06;4979569;28;20044;-79
2024/01/05 02:54:10;;;;;;;197.95;75.20;;;;;;;-142.57;100.00;58003.06;4981264;28;20039;-81
2024/01/05 02:56:35;;;;;;;216.20;77.57;;;;;;;-142.57;100.00;58077.88;4982134;28;20072;-81
2024/01/05 02:59:03;;;;;;;201.55;75.80;;;;;;;-142.57;100.00;58237.59;4977133;28;20037;-82
2024/01/05 03:01:29;;;;;;;221.73;78.68;;;;;;;-142.57;100.00;58546.94;4980672;28;20029;-80
2024/01/05 03:03:55;;;;;;;225.10;80.75;;;;;;;-142.57;100.00;58872.50;4980469;28;20425;-81
2024/01/05 03:06:21;;;;;;;216.98;78.07;;;;;;;-142.57;100.00;59014.06;4979046;28;21518;-80
2024/01/05 03:08:46;;;;;;;212.60;80.22;;;;;;;-142.57;100.00;59313.34;4981163;28;20392;-80
2024/01/05 03:11:12;;;;;;;208.27;77.93;;;;;;;-142.57;100.00;59198.09;4980739;28;21641;-81
2024/01/05 03:13:38;;;;;;;209.02;76.15;;;;;;;-142.57;100.00;58959.47;4979100;28;20032;-80
2024/01/05 03:16:04;;;;;;;210.68;78.30;;;;;;;-142.57;100.00;58817.91;4980526;28;20037;-79
2024/01/05 03:18:30;;;;;;;200.25;78.15;;;;;;;-142.57;100.00;59250.66;4979275;28;20044;-80
2024/01/05 03:20:56;;;;;;;206.73;79.15;;;;;;;-142.57;100.00;59432.69;4979777;28;21742;-82
2024/01/05 03:23:22;;;;;;;196.98;76.45;;;;;;;-142.57;100.00;59570.19;4991158;28;20025;-82
2024/01/05 03:25:48;;;;;;;204.52;78.38;;;;;;;-142.57;100.00;59851.34;5061838;28;20032;-80
2024/01/05 03:28:14;;;;;;;212.63;77.65;;;;;;;-142.57;100.00;59946.41;5061897;28;20064;-80
2024/01/05 03:30:42;;;;;;;208.60;80.03;;;;;;;-142.57;100.00;60336.81;5075376;28;20036;-80
2024/01/05 03:33:08;;;;;;;218.18;81.07;;;;;;;-142.57;100.00;61135.94;5062252;28;20086;-79
2024/01/05 03:35:33;;;;;;;219.90;81.25;;;;;;;-142.57;100.00;62080.91;4978509;28;20113;-79
2024/01/05 03:37:59;;;;;;;221.70;79.72;;;;;;;-142.57;100.00;62578.78;4979658;28;20493;-79
2024/01/05 03:40:24;;;;;;;212.43;79.88;;;;;;;-142.57;100.00;62414.84;4978310;28;20246;-79
2024/01/05 03:42:50;;;;;;;210.73;79.45;;;;;;;-142.57;100.00;61605.34;4994750;28;20121;-82
2024/01/05 03:45:16;;;;;;;225.82;82.30;;;;;;;-142.57;100.00;61647.84;5072076;28;20166;-81
2024/01/05 03:47:41;;;;;;;214.23;78.90;;;;;;;-142.57;100.00;62046.50;5088552;28;20051;-80
2024/01/05 03:50:07;;;;;;;203.05;78.43;;;;;;;-142.57;100.00;61892.72;5069671;28;20098;-80
2024/01/05 03:52:33;;;;;;;221.65;79.05;;;;;;;-142.57;100.00;61496.09;5076239;28;20075;-80
2024/01/05 03:54:58;;;;;;;220.02;81.00;;;;;;;-142.57;100.00;61785.47;5072053;28;20040;-80
2024/01/05 03:57:24;;;;;;;212.23;78.45;;;;;;;-142.57;100.00;62499.84;5071256;28;20106;-81
2024/01/05 03:59:50;;;;;;;209.13;77.78;;;;;;;-142.57;100.00;62042.47;5083678;28;20032;-78
2024/01/05 04:02:16;;;;;;;211.48;77.25;;;;;;;-142.57;100.00;62601.06;5019647;28;20047;-80
2024/01/05 04:04:45;;;;;;;194.95;76.95;;;;;;;-142.57;100.00;63224.50;4984745;28;20024;-79
2024/01/05 04:07:11;;;;;;;210.63;77.05;;;;;;;-142.57;100.00;63511.97;4983575;28;21583;-80
2024/01/05 04:09:36;;;;;;;199.75;74.53;;;;;;;-142.57;100.00;63499.84;4969491;28;20055;-79
2024/01/05 04:12:06;;;;;;;193.90;72.93;;;;;;;-142.57;100.00;64773.44;5040013;28;20056;-79
2024/01/05 04:14:32;;;;;;;182.93;71.82;;;;;;;-142.57;100.00;64133.56;5072622;28;20446;-79
2024/01/05 04:16:58;;;;;;;193.23;73.55;;;;;;;-142.57;100.00;63625.34;5075930;28;20039;-80
2024/01/05 04:19:23;;;;;;;186.05;75.50;;;;;;;-142.57;100.00;63827.81;4970675;28;21257;-80
2024/01/05 04:21:49;;;;;;;191.93;72.90;;;;;;;-142.57;100.00;63329.78;4980463;28;21599;-78
2024/01/05 04:24:15;;;;;;;193.82;74.13;;;;;;;-142.57;100.00;62963.38;4983910;28;20032;-81
2024/01/05 04:26:40;;;;;;;192.50;74.22;;;;;;;-142.57;100.00;63230.59;5006454;28;20067;-79
2024/01/05 04:29:06;;;;;;;190.65;72.60;;;;;;;-142.57;100.00;64086.97;5055996;28;20115;-79
2024/01/05 04:31:31;;;;;;;184.77;75.35;;;;;;;-142.57;100.00;63848.06;4984353;28;20485;-81
2024/01/05 04:33:57;;;;;;;178.88;73.63;;;;;;;-142.57;100.00;63918.94;4986193;28;20036;-80
2024/01/05 04:36:22;;;;;;;189.68;74.80;;;;;;;-142.57;100.00;64194.31;4982205;28;20686;-79
2024/01/05 04:38:48;;;;;;;183.75;73.63;;;;;;;-142.57;100.00;65156.22;5016645;28;20041;-79
2024/01/05 04:41:15;;;;;;;202.63;79.00;;;;;;;-142.57;100.00;66679.56;5073548;28;20025;-79
2024/01/05 04:43:41;;;;;;;192.70;76.03;;;;;;;-142.57;100.00;67972.44;5070329;28;20040;-80
2024/01/05 04:46:08;;;;;;;192.77;77.40;;;;;;;-142.57;100.00;68025.13;4984013;28;20074;-80
2024/01/05 04:48:33;;;;;;;176.63;73.63;;;;;;;-142.57;100.00;67863.00;4983933;28;21646;-78
2024/01/05 04:51:02;;;;;;;179.05;73.13;;;;;;;-142.57;100.00;67451.59;4983366;28;20508;-80
2024/01/05 04:53:28;;;;;;;181.65;73.55;;;;;;;-142.57;100.00;66067.72;4999211;28;20031;-83
2024/01/05 04:55:54;;;;;;;170.93;70.80;;;;;;;-142.57;100.00;65030.66;5066880;28;20036;-79
2024/01/05 04:58:19;;;;;;;163.95;68.60;;;;;;;-142.57;100.00;64125.47;5070991;28;20404;-81
2024/01/05 05:00:45;;;;;;;163.07;68.72;;;;;;;-142.57;100.00;62370.31;5091912;28;20031;-80
2024/01/05 05:03:11;;;;;;;149.43;67.63;;;;;;;-142.57;100.00;61852.25;5089508;28;20032;-79
2024/01/05 05:05:37;;;;;;;155.65;67.78;;;;;;;-142.57;100.00;61542.63;5093520;28;20024;-78
2024/01/05 05:08:03;;;;;;;156.65;68.13;;;;;;;-142.57;100.00;60986.19;5031502;28;20036;-78
2024/01/05 05:10:29;;;;;;;155.77;65.70;;;;;;;-142.57;100.00;60806.13;4984652;28;20036;-79
2024/01/05 05:12:55;;;;;;;142.73;64.20;;;;;;;-142.57;100.00;60152.72;4982246;28;20131;-77
2024/01/05 05:15:26;;;;;;;145.45;63.75;;;;;;;-142.57;100.00;60083.94;4984228;28;20040;-80
2024/01/05 05:17:53;;;;;;;146.30;65.43;;;;;;;-142.57;100.00;59440.75;5033433;28;20139;-78
2024/01/05 05:20:18;;;;;;;138.10;62.22;;;;;;;-142.57;100.00;59123.25;5066837;28;20032;-78
2024/01/05 05:22:43;;;;;;;138.40;61.83;;;;;;;-142.57;100.00;58625.81;5073356;28;20472;-79
2024/01/05 05:25:09;;;;;;;126.00;58.25;;;;;;;-142.57;100.00;58071.81;5071661;28;20118;-80
2024/01/05 05:27:34;;;;;;;134.70;60.00;;;;;;;-142.57;100.00;58053.63;5073057;28;20032;-79
2024/01/05 05:30:04;;;;;;;135.93;58.97;;;;;;;-142.57;100.00;58085.97;5035404;28;20043;-78
2024/01/05 05:32:29;;;;;;;133.80;57.75;;;;;;;-142.57;100.00;58003.06;4980776;28;20044;-81
2024/01/05 05:34:55;;;;;;;130.57;59.80;;;;;;;-142.57;100.00;57976.78;4982729;28;20091;-78
2024/01/05 05:37:21;;;;;;;125.22;57.40;;;;;;;-142.57;100.00;57782.72;4984410;28;20028;-82
2024/01/05 05:39:46;;;;;;;127.32;56.50;;;;;;;-142.57;100.00;57823.16;5041114;28;20032;-79
2024/01/05 05:42:12;;;;;;;124.72;57.65;;;;;;;-142.57;100.00;57887.84;5079803;28;20029;-77
2024/01/05 05:44:37;;;;;;;126.65;58.67;;;;;;;-142.57;100.00;57839.31;5059364;28;20400;-78
2024/01/05 05:47:03;;;;;;;126.30;58.28;;;;;;;-142.57;100.00;57665.47;5064989;28;20037;-80
2024/01/05 05:49:28;;;;;;;125.15;57.33;;;;;;;-142.57;100.00;57574.50;5001971;28;22212;-79
2024/01/05 05:51:54;;;;;;;122.07;56.08;;;;;;;-142.57;100.00;57501.72;4982144;28;21395;-78
2024/01/05 05:54:20;;;;;;;114.85;54.40;;;;;;;-142.57;100.00;57580.56;4980059;28;20484;-79
2024/01/05 05:56:46;;;;;;;120.40;57.85;;;;;;;-142.57;100.00;57473.44;4981554;28;20055;-79
2024/01/05 05:59:14;;;;;;;115.38;55.13;;;;;;;-142.57;100.00;57435.03;5060319;28;20097;-80
2024/01/05 06:01:39;;;;;;;125.28;53.70;;;;;;;-142.57;100.00;57154.06;5075726;28;20427;-81
2024/01/05 06:04:07;;;;;;;121.28;55.10;;;;;;;-142.57;100.00;57016.59;5078604;28;20039;-78
2024/01/05 06:06:34;;;;;;;116.82;53.58;;;;;;;-142.57;100.00;57099.47;5050379;28;20092;-81
2024/01/05 06:08:59;;;;;;;120.88;53.13;;;;;;;-142.57;100.00;56970.13;4983212;28;21810;-79
2024/01/05 06:11:26;;;;;;;110.72;52.22;;;;;;;-142.57;100.00;56984.28;4983310;28;20062;-80
2024/01/05 06:13:52;;;;;;;122.45;53.40;;;;;;;-142.57;100.00;56891.28;5072288;28;20677;-80
2024/01/05 06:16:18;;;;;;;125.43;54.97;;;;;;;-142.57;100.00;56877.16;4979230;28;20036;-79
2024/01/05 06:18:44;;;;;;;117.10;51.92;;;;;;;-142.57;100.00;56885.22;4982104;28;20927;-80
2024/01/05 06:21:10;;;;;;;120.63;51.72;;;;;;;-142.57;100.00;56881.19;4978955;28;20028;-78
2024/01/05 06:23:35;;;;;;;115.60;53.08;;;;;;;-142.57;100.00;56820.56;5001443;28;20067;-80
2024/01/05 06:26:01;;;;;;;107.70;53.25;;;;;;;-142.57;100.00;56727.59;5079247;28;20039;-79
2024/01/05 06:28:26;;;;;;;113.13;53.72;;;;;;;-142.57;100.00;56879.16;5079005;28;20117;-79
2024/01/05 06:30:52;;;;;;;114.78;51.90;;;;;;;-142.57;100.00;56873.09;4988444;28;20090;-81
2024/01/05 06:33:17;;;;;;;115.53;53.35;;;;;;;-142.57;100.00;56990.34;4983052;28;21557;-81
2024/01/05 06:35:43;;;;;;;115.70;54.42;;;;;;;-142.57;100.00;57067.13;4982202;28;20044;-81
2024/01/05 06:38:09;;;;;;;119.80;55.40;;;;;;;-142.57;100.00;57061.06;4981457;28;20119;-79
2024/01/05 06:40:34;;;;;;;117.32;52.80;;;;;;;-142.57;100.00;57059.06;5079041;28;20086;-80
2024/01/05 06:42:59;;;;;;;122.32;56.30;;;;;;;-142.57;100.00;56976.19;5083511;28;20114;-80
2024/01/05 06:45:25;;;;;;;113.95;53.97;;;;;;;-142.57;100.00;56953.94;4971319;28;20032;-83
2024/01/05 06:47:50;;;;;;;124.50;55.28;;;;;;;-142.57;100.00;56970.13;4982770;28;20032;-80
2024/01/05 06:50:16;;;;;;;124.32;53.97;;;;;;;-142.57;100.00;56869.06;4978225;28;20040;-79
2024/01/05 06:52:42;;;;;;;117.82;53.88;;;;;;;-142.57;100.00;56747.81;4982663;28;20033;-79
2024/01/05 06:55:08;;;;;;;117.75;52.58;;;;;;;-142.57;100.00;56804.38;5072753;28;20035;-79
2024/01/05 06:57:35;;;;;;;119.45;54.03;;;;;;;-142.57;100.00;56776.09;5073711;28;20474;-78
2024/01/05 07:00:14;;;;;;;113.47;52.65;;;;;;;-142.57;100.00;56735.69;5025316;28;20047;-80
2024/01/05 07:02:43;;;;;;;118.40;53.08;;;;;;;-142.57;100.00;56713.44;4965690;28;20052;-79
2024/01/05 07:05:08;;;;;;;117.93;53.17;;;;;;;-142.57;100.00;56705.34;4980904;28;20051;-80
2024/01/05 07:07:34;;;;;;;124.25;53.35;;;;;;;-142.57;100.00;56711.41;4970069;28;20041;-80
2024/01/05 07:09:59;;;;;;;112.75;52.55;;;;;;;-142.57;100.00;56671.00;5046890;28;20036;-80
2024/01/05 07:12:27;;;;;;;114.07;52.40;;;;;;;-142.57;100.00;56755.88;5076429;28;20036;-80
2024/01/05 07:14:53;;;;;;;112.07;50.28;;;;;;;-142.57;100.00;56701.31;5065501;28;20044;-78
2024/01/05 07:17:18;;;;;;;124.88;54.22;;;;;;;-142.57;100.00;56713.44;4980016;28;20090;-80
2024/01/05 07:19:44;;;;;;;109.80;50.65;;;;;;;-142.57;100.00;56650.78;4983912;28;20536;-81
2024/01/05 07:22:10;;;;;;;109.05;52.42;;;;;;;-142.57;100.00;56687.16;4985273;28;20040;-79
2024/01/05 07:24:37;;;;;;;109.90;52.28;;;;;;;-142.57;100.00;56666.97;4984677;28;20128;-79
2024/01/05 07:27:04;;;;;;;121.68;53.15;;;;;;;-142.57;100.00;56654.84;5090356;28;20103;-79
2024/01/05 07:29:29;;;;;;;107.07;50.58;;;;;;;-142.57;100.00;56705.34;5086906;28;20039;-80
2024/01/05 07:31:55;;;;;;;122.22;53.53;;;;;;;-142.57;100.00;56679.09;4985655;28;20028;-82
2024/01/05 07:34:21;;;;;;;120.53;52.28;;;;;;;-142.57;100.00;56727.59;4980989;28;20025;-78
2024/01/05 07:36:47;;;;;;;113.90;51.90;;;;;;;-142.57;100.00;56705.34;4983348;28;20044;-78
2024/01/05 07:39:13;;;;;;;109.50;51.17;;;;;;;-142.57;100.00;56689.19;4996772;28;20055;-79
2024/01/05 07:41:39;;;;;;;122.07;54.05;;;;;;;-142.57;100.00;56729.59;5084933;28;20090;-79
2024/01/05 07:44:05;;;;;;;121.10;54.75;;;;;;;-142.57;100.00;56814.50;5053151;28;20108;-80
2024/01/05 07:46:31;;;;;;;114.65;53.92;;;;;;;-142.57;100.00;56763.97;4982447;28;20039;-79
2024/01/05 07:48:57;;;;;;;117.82;54.38;;;;;;;-142.57;100.00;56699.28;4981544;28;20475;-80
2024/01/05 07:51:23;;;;;;;121.90;56.20;;;;;;;-142.57;100.00;56751.84;4970995;28;20044;-79
2024/01/05 07:53:50;;;;;;;123.95;56.13;;;;;;;-142.57;100.00;56776.09;5012335;28;20405;-80
2024/01/05 07:56:19;;;;;;;130.65;56.05;;;;;;;-142.57;100.00;56668.97;5073635;28;20484;-79
2024/01/05 07:58:45;;;;;;;133.65;57.22;;;;;;;-142.57;100.00;56650.78;5063028;28;20036;-82
2024/01/05 08:01:16;;;;;;;139.68;60.13;;;;;;;-142.57;100.00;56687.16;4985439;28;20037;-79
2024/01/05 08:03:42;;;;;;;145.07;58.95;;;;;;;-142.57;100.00;56717.47;4985345;28;21501;-82
2024/01/05 08:06:12;;;;;;;144.70;58.67;;;;;;;-142.57;100.00;56860.97;4983456;28;20540;-79
2024/01/05 08:08:40;;;;;;;136.43;58.22;;;;;;;-142.57;100.00;56836.72;5019640;28;20078;-83
2024/01/05 08:11:06;;;;;;;137.90;59.42;;;;;;;-142.57;100.00;56836.72;5082621;28;20039;-83
2024/01/05 08:13:31;;;;;;;142.13;58.83;;;;;;;-142.57;100.00;56810.44;5065888;28;20441;-82
2024/01/05 08:15:57;;;;;;;138.20;60.58;;;;;;;-142.57;100.00;56796.31;4982289;28;20040;-81
2024/01/05 08:18:22;;;;;;;147.10;60.55;;;;;;;-142.57;100.00;56899.38;4971838;28;21484;-82
2024/01/05 08:20:48;;;;;;;150.20;62.05;;;;;;;-142.57;100.00;57014.59;4983850;28;20518;-82
2024/01/05 08:23:13;;;;;;;150.00;63.65;;;;;;;-142.57;100.00;57010.53;4986427;28;20033;-83
2024/01/05 08:25:39;;;;;;;145.13;61.53;;;;;;;-142.57;100.00;56978.22;4987071;28;20171;-82
2024/01/05 08:28:05;;;;;;;151.52;61.83;;;;;;;-142.57;100.00;57004.47;4983916;28;20073;-81
2024/01/05 08:30:31;;;;;;;158.63;63.42;;;;;;;-142.57;100.00;57012.56;4983840;28;20064;-81
2024/01/05 08:32:56;;;;;;;143.70;60.70;;;;;;;-142.57;100.00;57022.69;4983583;28;20028;-82
2024/01/05 08:35:22;;;;;;;166.90;63.72;;;;;;;-142.57;100.00;57135.88;4979668;28;20440;-80
2024/01/05 08:37:47;;;;;;;153.98;62.53;;;;;;;-142.57;100.00;57131.81;4983863;28;20036;-84
2024/01/05 08:40:13;;;;;;;165.73;62.83;;;;;;;-142.57;100.00;57216.72;5026531;28;20031;-82
2024/01/05 08:42:40;;;;;;;165.63;67.55;;;;;;;-142.57;100.00;57281.41;5055885;28;20028;-80
2024/01/05 08:45:08;;;;;;;165.20;65.85;;;;;;;-142.57;100.00;57307.69;5000514;28;20488;-85
2024/01/05 08:47:35;;;;;;;178.52;68.25;;;;;;;-142.57;100.00;57263.19;5067585;28;20492;-83
2024/01/05 08:50:01;;;;;;;167.02;65.45;;;;;;;-142.57;100.00;57240.97;5083917;28;20477;-80
2024/01/05 08:52:27;;;;;;;162.95;63.78;;;;;;;-142.57;100.00;57180.34;5082984;28;20157;-80
2024/01/05 08:54:52;;;;;;;158.68;63.03;;;;;;;-142.57;100.00;57226.81;5068026;28;20143;-84
2024/01/05 08:57:18;;;;;;;155.32;66.00;;;;;;;-142.57;100.00;57222.78;5000450;28;20047;-79
2024/01/05 08:59:44;;;;;;;160.45;62.53;;;;;;;-142.57;100.00;57232.88;4992568;28;20044;-83
2024/01/05 09:02:09;;;;;;;157.18;63.25;;;;;;;-142.57;100.00;57164.16;5023186;28;20041;-81
2024/01/05 09:04:35;;;;;;;149.98;62.50;;;;;;;-142.57;100.00;57131.81;5032999;28;20032;-80
2024/01/05 09:07:00;;;;;;;149.75;61.67;;;;;;;-142.57;100.00;56990.34;5077259;28;20020;-80
2024/01/05 09:09:26;;;;;;;141.85;60.88;;;;;;;-142.57;100.00;56990.34;5069026;28;20047;-79
2024/01/05 09:11:51;;;;;;;145.98;62.50;;;;;;;-142.57;100.00;56929.69;5086375;28;20095;-83
2024/01/05 09:14:16;;;;;;;135.63;58.13;;;;;;;-142.57;100.00;56739.72;5043451;28;20094;-80
2024/01/05 09:16:42;;;;;;;126.57;57.67;;;;;;;-142.57;100.00;56820.56;5046409;28;20032;-81
2024/01/05 09:19:07;;;;;;;138.43;60.80;;;;;;;-142.57;100.00;56844.81;5064763;28;20039;-87
2024/01/05 09:21:33;;;;;;;141.85;58.08;;;;;;;-142.57;100.00;56895.34;5074540;28;20077;-81
2024/01/05 09:23:58;;;;;;;133.32;59.15;;;;;;;-142.57;100.00;56873.09;4997817;28;20039;-81
2024/01/05 09:26:27;;;;;;;136.30;59.92;;;;;;;-142.57;100.00;56778.13;4984746;28;20040;-80
2024/01/05 09:28:53;;;;;;;129.68;57.83;;;;;;;-142.57;100.00;56873.09;4984515;28;20047;-79
2024/01/05 09:31:18;;;;;;;134.13;57.35;;;;;;;-142.57;100.00;56804.38;4984350;28;20044;-81
2024/01/05 09:33:45;;;;;;;130.70;56.70;;;;;;;-142.57;100.00;56703.34;5033877;28;20036;-83
2024/01/05 09:36:10;;;;;;;148.50;58.03;;;;;;;-142.57;100.00;56741.75;5049557;28;20048;-80
2024/01/05 09:38:39;;;;;;;125.50;53.85;;;;;;;-142.57;100.00;56715.47;4977588;28;20652;-80
2024/01/05 09:41:08;;;;;;;131.38;57.25;;;;;;;-142.57;100.00;56666.97;4965818;28;20031;-81
2024/01/05 09:43:35;;;;;;;125.07;55.70;;;;;;;-142.57;100.00;56630.56;4979773;28;20073;-77
2024/01/05 09:46:01;;;;;;;124.18;56.50;;;;;;;-142.57;100.00;56618.44;4969650;28;20043;-81
2024/01/05 09:48:27;;;;;;;123.22;56.05;;;;;;;-142.57;100.00;56634.63;5053539;28;20519;-81
2024/01/05 09:50:57;;;;;;;114.25;54.70;;;;;;;-142.57;100.00;56616.44;5060132;28;20037;-78
2024/01/05 09:53:23;;;;;;;128.20;56.80;;;;;;;-142.57;100.00;56584.09;5026773;28;20374;-80
2024/01/05 09:55:50;;;;;;;123.55;55.80;;;;;;;-142.57;100.00;56614.41;5050669;28;20039;-82
2024/01/05 09:58:16;;;;;;;118.10;53.28;;;;;;;-142.57;100.00;56569.94;5024031;28;20028;-79
2024/01/05 10:00:45;;;;;;;120.30;55.25;;;;;;;-142.57;100.00;56596.22;5090224;28;20073;-80
2024/01/05 10:03:20;;;;;;;110.55;51.97;;;;;;;-142.57;100.00;56567.94;5025973;28;20028;-81
2024/01/05 10:05:45;;;;;;;112.95;51.33;;;;;;;-142.57;100.00;56553.78;5088318;28;20066;-79
2024/01/05 10:08:11;;;;;;;114.82;54.45;;;;;;;-142.57;100.00;56493.16;5045950;28;20044;-77
2024/01/05 10:10:53;;;;;;;122.60;55.90;;;;;;;-142.57;100.00;56598.25;5012866;28;20093;-81
2024/01/05 10:13:18;;;;;;;123.93;53.67;;;;;;;-142.57;100.00;56541.66;5064162;28;20036;-82
2024/01/05 10:16:02;;;;;;;121.95;53.25;;;;;;;-142.57;100.00;56541.66;5059361;28;20032;-78
2024/01/05 10:18:29;;;;;;;117.05;54.03;;;;;;;-142.57;100.00;56598.25;5091286;28;20028;-80
2024/01/05 10:20:55;;;;;;;115.85;53.95;;;;;;;-142.57;100.00;56561.88;5020600;28;21525;-79
2024/01/05 10:23:21;;;;;;;117.55;53.55;;;;;;;-142.57;100.00;56563.88;4977325;28;20036;-78
2024/01/05 10:25:47;;;;;;;118.20;52.10;;;;;;;-142.57;100.00;56509.31;5052625;28;20073;-79
2024/01/05 10:28:31;;;;;;;117.40;53.38;;;;;;;-142.57;100.00;56460.81;5072063;28;20035;-79
2024/01/05 10:31:11;;;;;;;119.75;53.75;;;;;;;-142.57;100.00;56505.28;5065988;28;20037;-80
2024/01/05 10:33:54;;;;;;;117.47;52.47;;;;;;;-142.57;100.00;56456.78;5088319;28;20036;-80
2024/01/05 10:36:21;;;;;;;117.55;52.25;;;;;;;-142.57;100.00;56489.13;5092178;28;20060;-80
2024/01/05 10:38:47;;;;;;;116.88;54.10;;;;;;;-142.57;100.00;56513.38;5093598;28;20044;-81
2024/01/05 10:41:15;;;;;;;116.40;53.40;;;;;;;-142.57;100.00;56505.28;5092142;28;20114;-79
2024/01/05 10:43:42;;;;;;;113.53;53.47;;;;;;;-142.57;100.00;56483.06;5064399;28;20131;-79